sensor_id;sensor_type;location;lat;lon;timestamp;P1;durP1;ratioP1;P2;durP2;ratioP2
67140;SDS011;54058;52.010;5.546;2022-09-23T00:00:28;2.25;;;1.77;;
67140;SDS011;54058;52.010;5.546;2022-09-23T00:02:53;8.30;;;1.90;;
67140;SDS011;54058;52.010;5.546;2022-09-23T00:05:19;2.70;;;1.80;;
67140;SDS011;54058;52.010;5.546;2022-09-23T00:07:45;3.20;;;2.00;;
67140;SDS011;54058;52.010;5.546;2022-09-23T00:10:10;2.30;;;2.00;;
67140;SDS011;54058;52.010;5.546;2022-09-23T00:12:36;4.75;;;1.88;;
67140;SDS011;54058;52.010;5.546;2022-09-23T00:15:02;5.10;;;2.20;;
67140;SDS011;54058;52.010;5.546;2022-09-23T00:17:29;4.10;;;2.10;;
67140;SDS011;54058;52.010;5.546;2022-09-23T00:19:55;1.73;;;1.55;;
67140;SDS011;54058;52.010;5.546;2022-09-23T00:22:21;3.60;;;2.30;;
67140;SDS011;54058;52.010;5.546;2022-09-23T00:24:46;1.90;;;1.70;;
67140;SDS011;54058;52.010;5.546;2022-09-23T00:27:12;6.05;;;2.13;;
67140;SDS011;54058;52.010;5.546;2022-09-23T00:29:38;2.88;;;2.20;;
67140;SDS011;54058;52.010;5.546;2022-09-23T00:32:04;9.43;;;2.85;;
67140;SDS011;54058;52.010;5.546;2022-09-23T00:34:29;5.57;;;2.17;;
67140;SDS011;54058;52.010;5.546;2022-09-23T00:36:55;6.85;;;2.10;;
67140;SDS011;54058;52.010;5.546;2022-09-23T00:39:22;2.72;;;2.10;;
67140;SDS011;54058;52.010;5.546;2022-09-23T00:41:49;3.28;;;2.20;;
67140;SDS011;54058;52.010;5.546;2022-09-23T00:45:00;5.38;;;2.10;;
67140;SDS011;54058;52.010;5.546;2022-09-23T00:47:11;2.80;;;2.40;;
67140;SDS011;54058;52.010;5.546;2022-09-23T00:49:37;4.00;;;2.67;;
67140;SDS011;54058;52.010;5.546;2022-09-23T00:52:08;8.02;;;2.63;;
67140;SDS011;54058;52.010;5.546;2022-09-23T00:54:38;2.88;;;2.20;;
67140;SDS011;54058;52.010;5.546;2022-09-23T00:57:05;5.70;;;2.83;;
67140;SDS011;54058;52.010;5.546;2022-09-23T00:59:35;4.45;;;2.72;;
67140;SDS011;54058;52.010;5.546;2022-09-23T01:02:01;5.97;;;3.30;;
67140;SDS011;54058;52.010;5.546;2022-09-23T01:04:28;3.17;;;2.53;;
67140;SDS011;54058;52.010;5.546;2022-09-23T01:06:54;6.95;;;3.15;;
67140;SDS011;54058;52.010;5.546;2022-09-23T01:09:20;3.88;;;2.55;;
67140;SDS011;54058;52.010;5.546;2022-09-23T01:11:53;5.28;;;2.90;;
67140;SDS011;54058;52.010;5.546;2022-09-23T01:28:42;6.65;;;3.45;;
67140;SDS011;54058;52.010;5.546;2022-09-23T01:34:19;6.53;;;3.35;;
67140;SDS011;54058;52.010;5.546;2022-09-23T01:36:57;5.47;;;3.20;;
67140;SDS011;54058;52.010;5.546;2022-09-23T01:39:51;4.68;;;3.13;;
67140;SDS011;54058;52.010;5.546;2022-09-23T01:42:30;4.88;;;3.35;;
67140;SDS011;54058;52.010;5.546;2022-09-23T01:45:37;6.57;;;3.53;;
67140;SDS011;54058;52.010;5.546;2022-09-23T01:48:03;7.15;;;3.72;;
67140;SDS011;54058;52.010;5.546;2022-09-23T01:50:45;6.78;;;3.17;;
67140;SDS011;54058;52.010;5.546;2022-09-23T01:53:45;4.15;;;3.03;;
67140;SDS011;54058;52.010;5.546;2022-09-23T01:56:34;4.80;;;3.35;;
67140;SDS011;54058;52.010;5.546;2022-09-23T01:59:07;7.80;;;3.42;;
67140;SDS011;54058;52.010;5.546;2022-09-23T02:01:41;6.60;;;3.58;;
67140;SDS011;54058;52.010;5.546;2022-09-23T02:04:18;4.68;;;3.55;;
67140;SDS011;54058;52.010;5.546;2022-09-23T02:06:53;4.57;;;3.55;;
67140;SDS011;54058;52.010;5.546;2022-09-23T02:09:30;9.57;;;3.45;;
67140;SDS011;54058;52.010;5.546;2022-09-23T02:12:03;10.53;;;3.70;;
67140;SDS011;54058;52.010;5.546;2022-09-23T02:14:49;7.80;;;3.53;;
67140;SDS011;54058;52.010;5.546;2022-09-23T02:18:06;6.40;;;3.90;;
67140;SDS011;54058;52.010;5.546;2022-09-23T02:20:16;8.68;;;4.32;;
67140;SDS011;54058;52.010;5.546;2022-09-23T02:22:55;8.23;;;4.20;;
67140;SDS011;54058;52.010;5.546;2022-09-23T02:25:52;6.05;;;4.20;;
67140;SDS011;54058;52.010;5.546;2022-09-23T02:28:53;8.07;;;4.30;;
67140;SDS011;54058;52.010;5.546;2022-09-23T02:31:10;8.98;;;4.32;;
67140;SDS011;54058;52.010;5.546;2022-09-23T02:33:53;7.82;;;4.10;;
67140;SDS011;54058;52.010;5.546;2022-09-23T02:36:26;8.13;;;4.80;;
67140;SDS011;54058;52.010;5.546;2022-09-23T02:38:56;8.25;;;4.88;;
67140;SDS011;54058;52.010;5.546;2022-09-23T02:41:31;7.32;;;5.28;;
67140;SDS011;54058;52.010;5.546;2022-09-23T02:44:10;5.78;;;4.28;;
67140;SDS011;54058;52.010;5.546;2022-09-23T02:46:42;8.05;;;4.25;;
67140;SDS011;54058;52.010;5.546;2022-09-23T02:49:20;7.95;;;4.63;;
67140;SDS011;54058;52.010;5.546;2022-09-23T02:51:49;5.68;;;4.75;;
67140;SDS011;54058;52.010;5.546;2022-09-23T02:54:16;7.80;;;4.78;;
67140;SDS011;54058;52.010;5.546;2022-09-23T02:56:44;7.22;;;4.65;;
67140;SDS011;54058;52.010;5.546;2022-09-23T02:59:13;7.75;;;4.93;;
67140;SDS011;54058;52.010;5.546;2022-09-23T03:15:36;7.50;;;4.75;;
67140;SDS011;54058;52.010;5.546;2022-09-23T03:18:20;6.82;;;4.88;;
67140;SDS011;54058;52.010;5.546;2022-09-23T03:21:00;10.45;;;4.72;;
67140;SDS011;54058;52.010;5.546;2022-09-23T03:23:32;9.77;;;5.13;;
67140;SDS011;54058;52.010;5.546;2022-09-23T03:26:00;9.65;;;5.05;;
67140;SDS011;54058;52.010;5.546;2022-09-23T03:28:47;7.22;;;5.20;;
67140;SDS011;54058;52.010;5.546;2022-09-23T03:31:19;9.15;;;5.45;;
67140;SDS011;54058;52.010;5.546;2022-09-23T03:33:51;9.77;;;5.40;;
67140;SDS011;54058;52.010;5.546;2022-09-23T03:36:23;7.07;;;5.40;;
67140;SDS011;54058;52.010;5.546;2022-09-23T03:39:22;7.80;;;5.38;;
67140;SDS011;54058;52.010;5.546;2022-09-23T03:42:00;7.75;;;5.57;;
67140;SDS011;54058;52.010;5.546;2022-09-23T03:44:32;8.90;;;5.80;;
67140;SDS011;54058;52.010;5.546;2022-09-23T03:47:01;7.97;;;5.47;;
67140;SDS011;54058;52.010;5.546;2022-09-23T03:49:34;7.47;;;5.15;;
67140;SDS011;54058;52.010;5.546;2022-09-23T03:52:03;14.68;;;5.30;;
67140;SDS011;54058;52.010;5.546;2022-09-23T03:54:28;9.93;;;6.32;;
67140;SDS011;54058;52.010;5.546;2022-09-23T03:56:55;9.43;;;5.55;;
67140;SDS011;54058;52.010;5.546;2022-09-23T03:59:21;13.15;;;5.70;;
67140;SDS011;54058;52.010;5.546;2022-09-23T04:01:51;11.43;;;5.72;;
67140;SDS011;54058;52.010;5.546;2022-09-23T04:04:17;8.63;;;6.40;;
67140;SDS011;54058;52.010;5.546;2022-09-23T04:06:42;12.68;;;6.18;;
67140;SDS011;54058;52.010;5.546;2022-09-23T04:09:08;20.08;;;7.10;;
67140;SDS011;54058;52.010;5.546;2022-09-23T04:14:01;17.95;;;6.57;;
67140;SDS011;54058;52.010;5.546;2022-09-23T04:16:28;11.63;;;6.20;;
67140;SDS011;54058;52.010;5.546;2022-09-23T04:18:55;9.82;;;6.60;;
67140;SDS011;54058;52.010;5.546;2022-09-23T04:21:21;18.90;;;7.30;;
67140;SDS011;54058;52.010;5.546;2022-09-23T04:23:47;40.80;;;8.13;;
67140;SDS011;54058;52.010;5.546;2022-09-23T04:26:12;10.50;;;6.35;;
67140;SDS011;54058;52.010;5.546;2022-09-23T04:28:43;13.77;;;6.22;;
67140;SDS011;54058;52.010;5.546;2022-09-23T04:31:09;12.60;;;6.93;;
67140;SDS011;54058;52.010;5.546;2022-09-23T04:33:36;8.85;;;6.50;;
67140;SDS011;54058;52.010;5.546;2022-09-23T04:36:02;8.38;;;6.35;;
67140;SDS011;54058;52.010;5.546;2022-09-23T04:38:28;10.90;;;6.43;;
67140;SDS011;54058;52.010;5.546;2022-09-23T04:40:53;17.80;;;8.10;;
67140;SDS011;54058;52.010;5.546;2022-09-23T04:43:19;11.55;;;6.57;;
67140;SDS011;54058;52.010;5.546;2022-09-23T04:45:55;8.15;;;6.38;;
67140;SDS011;54058;52.010;5.546;2022-09-23T04:48:28;12.57;;;7.10;;
67140;SDS011;54058;52.010;5.546;2022-09-23T04:51:00;9.05;;;6.88;;
67140;SDS011;54058;52.010;5.546;2022-09-23T04:53:31;15.05;;;7.53;;
67140;SDS011;54058;52.010;5.546;2022-09-23T04:56:06;13.65;;;7.55;;
67140;SDS011;54058;52.010;5.546;2022-09-23T04:58:34;14.40;;;7.50;;
67140;SDS011;54058;52.010;5.546;2022-09-23T05:03:52;16.10;;;8.15;;
67140;SDS011;54058;52.010;5.546;2022-09-23T05:06:19;14.00;;;7.28;;
67140;SDS011;54058;52.010;5.546;2022-09-23T05:08:48;11.63;;;7.07;;
67140;SDS011;54058;52.010;5.546;2022-09-23T05:11:18;10.13;;;7.85;;
67140;SDS011;54058;52.010;5.546;2022-09-23T05:13:48;12.37;;;7.43;;
67140;SDS011;54058;52.010;5.546;2022-09-23T05:16:15;9.27;;;7.38;;
67140;SDS011;54058;52.010;5.546;2022-09-23T05:18:41;10.97;;;7.50;;
67140;SDS011;54058;52.010;5.546;2022-09-23T05:21:08;11.30;;;7.63;;
67140;SDS011;54058;52.010;5.546;2022-09-23T05:23:36;11.65;;;7.82;;
67140;SDS011;54058;52.010;5.546;2022-09-23T05:26:03;11.75;;;8.02;;
67140;SDS011;54058;52.010;5.546;2022-09-23T05:28:30;15.35;;;7.13;;
67140;SDS011;54058;52.010;5.546;2022-09-23T05:31:01;18.88;;;7.82;;
67140;SDS011;54058;52.010;5.546;2022-09-23T05:33:29;12.80;;;7.82;;
67140;SDS011;54058;52.010;5.546;2022-09-23T05:35:55;13.73;;;8.15;;
67140;SDS011;54058;52.010;5.546;2022-09-23T05:38:22;11.13;;;7.57;;
67140;SDS011;54058;52.010;5.546;2022-09-23T05:41:00;11.20;;;8.00;;
67140;SDS011;54058;52.010;5.546;2022-09-23T05:43:30;15.00;;;7.68;;
67140;SDS011;54058;52.010;5.546;2022-09-23T05:48:33;14.95;;;7.55;;
67140;SDS011;54058;52.010;5.546;2022-09-23T05:53:26;13.68;;;7.82;;
67140;SDS011;54058;52.010;5.546;2022-09-23T05:55:53;11.90;;;7.72;;
67140;SDS011;54058;52.010;5.546;2022-09-23T05:58:20;12.73;;;7.38;;
67140;SDS011;54058;52.010;5.546;2022-09-23T06:00:47;15.73;;;7.45;;
67140;SDS011;54058;52.010;5.546;2022-09-23T06:03:14;12.90;;;7.90;;
67140;SDS011;54058;52.010;5.546;2022-09-23T06:05:42;9.70;;;7.32;;
67140;SDS011;54058;52.010;5.546;2022-09-23T06:08:07;12.85;;;8.50;;
67140;SDS011;54058;52.010;5.546;2022-09-23T06:10:37;14.75;;;8.25;;
67140;SDS011;54058;52.010;5.546;2022-09-23T06:13:08;14.50;;;8.75;;
67140;SDS011;54058;52.010;5.546;2022-09-23T06:15:34;13.27;;;6.90;;
67140;SDS011;54058;52.010;5.546;2022-09-23T06:18:00;12.65;;;8.07;;
67140;SDS011;54058;52.010;5.546;2022-09-23T06:20:26;12.85;;;6.88;;
67140;SDS011;54058;52.010;5.546;2022-09-23T06:22:52;21.42;;;7.35;;
67140;SDS011;54058;52.010;5.546;2022-09-23T06:25:18;13.88;;;8.50;;
67140;SDS011;54058;52.010;5.546;2022-09-23T06:27:56;14.95;;;8.23;;
67140;SDS011;54058;52.010;5.546;2022-09-23T06:30:23;9.70;;;7.82;;
67140;SDS011;54058;52.010;5.546;2022-09-23T06:32:52;11.77;;;7.60;;
67140;SDS011;54058;52.010;5.546;2022-09-23T06:35:23;13.32;;;7.45;;
67140;SDS011;54058;52.010;5.546;2022-09-23T06:37:50;10.27;;;7.60;;
67140;SDS011;54058;52.010;5.546;2022-09-23T06:40:17;15.30;;;7.40;;
67140;SDS011;54058;52.010;5.546;2022-09-23T06:42:43;15.10;;;8.75;;
67140;SDS011;54058;52.010;5.546;2022-09-23T06:45:10;8.60;;;6.97;;
67140;SDS011;54058;52.010;5.546;2022-09-23T06:47:39;12.60;;;6.75;;
67140;SDS011;54058;52.010;5.546;2022-09-23T06:50:09;10.13;;;6.55;;
67140;SDS011;54058;52.010;5.546;2022-09-23T06:52:36;14.55;;;7.07;;
67140;SDS011;54058;52.010;5.546;2022-09-23T06:55:02;17.35;;;7.72;;
67140;SDS011;54058;52.010;5.546;2022-09-23T06:57:28;18.05;;;8.40;;
67140;SDS011;54058;52.010;5.546;2022-09-23T06:59:54;12.60;;;7.75;;
67140;SDS011;54058;52.010;5.546;2022-09-23T07:02:22;13.50;;;7.65;;
67140;SDS011;54058;52.010;5.546;2022-09-23T07:04:47;15.68;;;8.52;;
67140;SDS011;54058;52.010;5.546;2022-09-23T07:07:13;14.80;;;8.57;;
67140;SDS011;54058;52.010;5.546;2022-09-23T07:09:40;18.35;;;9.10;;
67140;SDS011;54058;52.010;5.546;2022-09-23T07:12:06;17.63;;;8.20;;
67140;SDS011;54058;52.010;5.546;2022-09-23T07:14:32;15.00;;;8.27;;
67140;SDS011;54058;52.010;5.546;2022-09-23T07:16:57;18.55;;;8.07;;
67140;SDS011;54058;52.010;5.546;2022-09-23T07:19:23;9.82;;;7.53;;
67140;SDS011;54058;52.010;5.546;2022-09-23T07:21:50;15.52;;;7.25;;
67140;SDS011;54058;52.010;5.546;2022-09-23T07:24:15;14.82;;;7.85;;
67140;SDS011;54058;52.010;5.546;2022-09-23T07:26:42;11.25;;;8.43;;
67140;SDS011;54058;52.010;5.546;2022-09-23T07:29:10;16.25;;;7.53;;
67140;SDS011;54058;52.010;5.546;2022-09-23T07:31:37;11.40;;;7.97;;
67140;SDS011;54058;52.010;5.546;2022-09-23T07:34:03;13.20;;;7.45;;
67140;SDS011;54058;52.010;5.546;2022-09-23T07:36:30;14.02;;;8.63;;
67140;SDS011;54058;52.010;5.546;2022-09-23T07:38:56;10.68;;;7.40;;
67140;SDS011;54058;52.010;5.546;2022-09-23T07:41:26;15.20;;;7.05;;
67140;SDS011;54058;52.010;5.546;2022-09-23T07:43:53;13.50;;;7.30;;
67140;SDS011;54058;52.010;5.546;2022-09-23T07:46:23;12.05;;;7.55;;
67140;SDS011;54058;52.010;5.546;2022-09-23T07:48:51;12.07;;;7.55;;
67140;SDS011;54058;52.010;5.546;2022-09-23T07:53:49;14.50;;;7.90;;
67140;SDS011;54058;52.010;5.546;2022-09-23T07:56:16;11.77;;;8.07;;
67140;SDS011;54058;52.010;5.546;2022-09-23T08:01:09;12.17;;;7.40;;
67140;SDS011;54058;52.010;5.546;2022-09-23T08:03:35;10.52;;;7.18;;
67140;SDS011;54058;52.010;5.546;2022-09-23T08:06:02;12.13;;;7.88;;
67140;SDS011;54058;52.010;5.546;2022-09-23T08:08:29;16.10;;;8.80;;
67140;SDS011;54058;52.010;5.546;2022-09-23T08:10:59;16.52;;;8.13;;
67140;SDS011;54058;52.010;5.546;2022-09-23T08:13:28;12.05;;;6.95;;
67140;SDS011;54058;52.010;5.546;2022-09-23T08:15:54;11.85;;;6.68;;
67140;SDS011;54058;52.010;5.546;2022-09-23T08:18:20;17.13;;;7.00;;
67140;SDS011;54058;52.010;5.546;2022-09-23T08:20:46;12.20;;;7.45;;
67140;SDS011;54058;52.010;5.546;2022-09-23T08:23:12;12.80;;;7.82;;
67140;SDS011;54058;52.010;5.546;2022-09-23T08:25:39;13.15;;;6.60;;
67140;SDS011;54058;52.010;5.546;2022-09-23T08:28:05;10.33;;;6.90;;
67140;SDS011;54058;52.010;5.546;2022-09-23T08:30:30;19.17;;;6.80;;
67140;SDS011;54058;52.010;5.546;2022-09-23T08:32:56;12.52;;;7.13;;
67140;SDS011;54058;52.010;5.546;2022-09-23T08:35:21;12.27;;;6.55;;
67140;SDS011;54058;52.010;5.546;2022-09-23T08:37:47;15.82;;;6.90;;
67140;SDS011;54058;52.010;5.546;2022-09-23T08:40:13;8.95;;;6.72;;
67140;SDS011;54058;52.010;5.546;2022-09-23T08:42:39;13.82;;;6.90;;
67140;SDS011;54058;52.010;5.546;2022-09-23T08:45:09;13.38;;;7.53;;
67140;SDS011;54058;52.010;5.546;2022-09-23T08:50:21;15.38;;;6.70;;
67140;SDS011;54058;52.010;5.546;2022-09-23T08:55:17;12.48;;;6.78;;
67140;SDS011;54058;52.010;5.546;2022-09-23T08:57:56;18.25;;;6.82;;
67140;SDS011;54058;52.010;5.546;2022-09-23T09:00:32;16.52;;;7.18;;
67140;SDS011;54058;52.010;5.546;2022-09-23T09:03:12;16.95;;;7.00;;
67140;SDS011;54058;52.010;5.546;2022-09-23T09:05:44;10.77;;;6.85;;
67140;SDS011;54058;52.010;5.546;2022-09-23T09:08:10;28.27;;;7.60;;
67140;SDS011;54058;52.010;5.546;2022-09-23T09:10:39;18.93;;;8.23;;
67140;SDS011;54058;52.010;5.546;2022-09-23T09:13:10;26.25;;;7.85;;
67140;SDS011;54058;52.010;5.546;2022-09-23T09:16:15;21.48;;;7.25;;
67140;SDS011;54058;52.010;5.546;2022-09-23T09:19:20;19.05;;;6.40;;
67140;SDS011;54058;52.010;5.546;2022-09-23T09:22:06;24.65;;;6.05;;
67140;SDS011;54058;52.010;5.546;2022-09-23T09:24:43;29.48;;;6.95;;
67140;SDS011;54058;52.010;5.546;2022-09-23T09:27:12;17.50;;;6.57;;
67140;SDS011;54058;52.010;5.546;2022-09-23T09:29:40;14.90;;;6.60;;
67140;SDS011;54058;52.010;5.546;2022-09-23T09:32:33;18.20;;;5.43;;
67140;SDS011;54058;52.010;5.546;2022-09-23T09:35:10;13.73;;;5.85;;
67140;SDS011;54058;52.010;5.546;2022-09-23T09:37:45;10.43;;;5.75;;
67140;SDS011;54058;52.010;5.546;2022-09-23T09:40:12;9.48;;;5.38;;
67140;SDS011;54058;52.010;5.546;2022-09-23T12:32:16;22.55;;;7.00;;
67140;SDS011;54058;52.010;5.546;2022-09-23T12:41:34;14.52;;;5.78;;
67140;SDS011;54058;52.010;5.546;2022-09-23T12:46:32;11.43;;;5.10;;
67140;SDS011;54058;52.010;5.546;2022-09-23T12:48:59;13.93;;;5.37;;
67140;SDS011;54058;52.010;5.546;2022-09-23T12:51:27;11.38;;;4.43;;
67140;SDS011;54058;52.010;5.546;2022-09-23T12:53:54;12.50;;;4.95;;
67140;SDS011;54058;52.010;5.546;2022-09-23T13:01:34;9.85;;;4.10;;
67140;SDS011;54058;52.010;5.546;2022-09-23T13:04:01;10.05;;;3.63;;
67140;SDS011;54058;52.010;5.546;2022-09-23T13:07:06;16.92;;;3.58;;
67140;SDS011;54058;52.010;5.546;2022-09-23T13:09:38;6.68;;;3.30;;
67140;SDS011;54058;52.010;5.546;2022-09-23T13:12:15;7.43;;;3.03;;
67140;SDS011;54058;52.010;5.546;2022-09-23T13:14:49;10.07;;;3.28;;
67140;SDS011;54058;52.010;5.546;2022-09-23T13:17:24;5.85;;;2.78;;
67140;SDS011;54058;52.010;5.546;2022-09-23T13:20:05;8.15;;;3.60;;
67140;SDS011;54058;52.010;5.546;2022-09-23T13:23:04;6.20;;;3.50;;
67140;SDS011;54058;52.010;5.546;2022-09-23T13:25:58;8.98;;;3.13;;
67140;SDS011;54058;52.010;5.546;2022-09-23T13:30:54;4.20;;;3.22;;
67140;SDS011;54058;52.010;5.546;2022-09-23T13:33:22;9.03;;;3.80;;
67140;SDS011;54058;52.010;5.546;2022-09-23T13:36:19;16.75;;;3.10;;
67140;SDS011;54058;52.010;5.546;2022-09-23T13:38:45;4.30;;;2.77;;
67140;SDS011;54058;52.010;5.546;2022-09-23T13:41:18;5.93;;;3.13;;
67140;SDS011;54058;52.010;5.546;2022-09-23T13:48:45;7.18;;;2.78;;
67140;SDS011;54058;52.010;5.546;2022-09-23T13:51:25;7.47;;;3.28;;
67140;SDS011;54058;52.010;5.546;2022-09-23T13:53:55;4.03;;;2.70;;
67140;SDS011;54058;52.010;5.546;2022-09-23T13:56:23;7.25;;;3.38;;
67140;SDS011;54058;52.010;5.546;2022-09-23T13:58:51;6.07;;;2.80;;
67140;SDS011;54058;52.010;5.546;2022-09-23T14:01:33;3.65;;;2.60;;
67140;SDS011;54058;52.010;5.546;2022-09-23T14:04:00;9.02;;;2.90;;
67140;SDS011;54058;52.010;5.546;2022-09-23T14:06:26;8.88;;;3.33;;
67140;SDS011;54058;52.010;5.546;2022-09-23T14:08:54;4.43;;;2.30;;
67140;SDS011;54058;52.010;5.546;2022-09-23T14:11:42;3.08;;;2.47;;
67140;SDS011;54058;52.010;5.546;2022-09-23T14:16:37;9.30;;;3.15;;
67140;SDS011;54058;52.010;5.546;2022-09-23T14:19:04;4.70;;;2.47;;
67140;SDS011;54058;52.010;5.546;2022-09-23T14:26:41;11.43;;;2.72;;
67140;SDS011;54058;52.010;5.546;2022-09-23T14:29:11;7.13;;;2.95;;
67140;SDS011;54058;52.010;5.546;2022-09-23T14:31:41;5.95;;;2.50;;
67140;SDS011;54058;52.010;5.546;2022-09-23T14:37:49;8.68;;;2.58;;
67140;SDS011;54058;52.010;5.546;2022-09-23T14:40:21;9.05;;;3.13;;
67140;SDS011;54058;52.010;5.546;2022-09-23T14:42:56;8.00;;;2.63;;
67140;SDS011;54058;52.010;5.546;2022-09-23T14:45:36;5.72;;;2.60;;
67140;SDS011;54058;52.010;5.546;2022-09-23T14:48:11;2.88;;;2.33;;
67140;SDS011;54058;52.010;5.546;2022-09-23T14:50:56;3.47;;;2.35;;
67140;SDS011;54058;52.010;5.546;2022-09-23T14:58:39;4.43;;;2.85;;
67140;SDS011;54058;52.010;5.546;2022-09-23T15:01:23;6.22;;;2.97;;
67140;SDS011;54058;52.010;5.546;2022-09-23T15:03:49;7.60;;;3.00;;
67140;SDS011;54058;52.010;5.546;2022-09-23T15:06:14;5.20;;;2.87;;
67140;SDS011;54058;52.010;5.546;2022-09-23T15:08:41;4.93;;;2.78;;
67140;SDS011;54058;52.010;5.546;2022-09-23T15:11:09;6.57;;;3.13;;
67140;SDS011;54058;52.010;5.546;2022-09-23T15:13:45;8.03;;;3.00;;
67140;SDS011;54058;52.010;5.546;2022-09-23T15:16:14;7.30;;;3.03;;
67140;SDS011;54058;52.010;5.546;2022-09-23T15:18:43;4.65;;;2.80;;
67140;SDS011;54058;52.010;5.546;2022-09-23T15:21:17;11.80;;;3.83;;
67140;SDS011;54058;52.010;5.546;2022-09-23T15:23:46;4.13;;;3.10;;
67140;SDS011;54058;52.010;5.546;2022-09-23T15:26:13;5.55;;;3.08;;
67140;SDS011;54058;52.010;5.546;2022-09-23T15:28:43;7.68;;;3.53;;
67140;SDS011;54058;52.010;5.546;2022-09-23T15:31:10;9.98;;;3.55;;
67140;SDS011;54058;52.010;5.546;2022-09-23T15:33:36;7.47;;;4.00;;
67140;SDS011;54058;52.010;5.546;2022-09-23T15:36:02;4.68;;;3.50;;
67140;SDS011;54058;52.010;5.546;2022-09-23T15:38:28;11.07;;;4.05;;
67140;SDS011;54058;52.010;5.546;2022-09-23T15:40:54;5.37;;;3.70;;
67140;SDS011;54058;52.010;5.546;2022-09-23T15:43:21;11.48;;;3.92;;
67140;SDS011;54058;52.010;5.546;2022-09-23T15:45:49;6.70;;;3.83;;
67140;SDS011;54058;52.010;5.546;2022-09-23T15:48:22;6.03;;;3.72;;
67140;SDS011;54058;52.010;5.546;2022-09-23T15:50:49;6.68;;;3.58;;
67140;SDS011;54058;52.010;5.546;2022-09-23T15:53:25;7.40;;;3.85;;
67140;SDS011;54058;52.010;5.546;2022-09-23T15:55:52;8.68;;;4.07;;
67140;SDS011;54058;52.010;5.546;2022-09-23T15:58:18;9.73;;;4.97;;
67140;SDS011;54058;52.010;5.546;2022-09-23T16:00:45;8.63;;;4.82;;
67140;SDS011;54058;52.010;5.546;2022-09-23T16:03:15;6.10;;;3.90;;
67140;SDS011;54058;52.010;5.546;2022-09-23T16:05:42;7.82;;;5.20;;
67140;SDS011;54058;52.010;5.546;2022-09-23T16:08:09;6.68;;;4.25;;
67140;SDS011;54058;52.010;5.546;2022-09-23T16:10:36;7.00;;;4.20;;
67140;SDS011;54058;52.010;5.546;2022-09-23T16:13:02;8.18;;;4.47;;
67140;SDS011;54058;52.010;5.546;2022-09-23T16:15:30;9.98;;;4.63;;
67140;SDS011;54058;52.010;5.546;2022-09-23T16:17:57;8.70;;;4.35;;
67140;SDS011;54058;52.010;5.546;2022-09-23T16:20:23;8.77;;;5.10;;
67140;SDS011;54058;52.010;5.546;2022-09-23T16:22:57;10.93;;;4.43;;
67140;SDS011;54058;52.010;5.546;2022-09-23T16:25:26;6.20;;;3.05;;
67140;SDS011;54058;52.010;5.546;2022-09-23T16:27:54;13.00;;;4.75;;
67140;SDS011;54058;52.010;5.546;2022-09-23T16:30:24;13.50;;;4.80;;
67140;SDS011;54058;52.010;5.546;2022-09-23T16:32:51;8.20;;;4.80;;
67140;SDS011;54058;52.010;5.546;2022-09-23T16:35:18;13.60;;;5.25;;
67140;SDS011;54058;52.010;5.546;2022-09-23T16:42:43;14.60;;;4.80;;
67140;SDS011;54058;52.010;5.546;2022-09-23T16:45:10;12.13;;;5.90;;
67140;SDS011;54058;52.010;5.546;2022-09-23T16:47:44;8.90;;;4.50;;
67140;SDS011;54058;52.010;5.546;2022-09-23T16:50:12;10.25;;;5.57;;
67140;SDS011;54058;52.010;5.546;2022-09-23T16:52:40;18.85;;;7.03;;
67140;SDS011;54058;52.010;5.546;2022-09-23T16:55:06;9.85;;;5.47;;
67140;SDS011;54058;52.010;5.546;2022-09-23T16:57:34;12.85;;;5.63;;
67140;SDS011;54058;52.010;5.546;2022-09-23T17:00:02;8.07;;;5.25;;
67140;SDS011;54058;52.010;5.546;2022-09-23T17:02:48;12.35;;;5.22;;
67140;SDS011;54058;52.010;5.546;2022-09-23T17:05:46;13.77;;;6.30;;
67140;SDS011;54058;52.010;5.546;2022-09-23T17:08:13;11.57;;;7.43;;
67140;SDS011;54058;52.010;5.546;2022-09-23T17:10:41;11.73;;;7.38;;
67140;SDS011;54058;52.010;5.546;2022-09-23T17:13:08;9.20;;;5.78;;
67140;SDS011;54058;52.010;5.546;2022-09-23T17:18:01;11.93;;;7.00;;
67140;SDS011;54058;52.010;5.546;2022-09-23T17:20:28;18.98;;;7.10;;
67140;SDS011;54058;52.010;5.546;2022-09-23T17:22:53;11.52;;;7.40;;
67140;SDS011;54058;52.010;5.546;2022-09-23T17:25:20;12.65;;;8.68;;
67140;SDS011;54058;52.010;5.546;2022-09-23T17:27:46;12.57;;;7.90;;
67140;SDS011;54058;52.010;5.546;2022-09-23T17:30:12;13.75;;;8.15;;
67140;SDS011;54058;52.010;5.546;2022-09-23T17:32:39;12.65;;;7.30;;
67140;SDS011;54058;52.010;5.546;2022-09-23T17:35:05;19.50;;;9.57;;
67140;SDS011;54058;52.010;5.546;2022-09-23T17:37:31;14.30;;;9.23;;
67140;SDS011;54058;52.010;5.546;2022-09-23T17:39:57;17.25;;;10.65;;
67140;SDS011;54058;52.010;5.546;2022-09-23T17:42:23;20.93;;;12.83;;
67140;SDS011;54058;52.010;5.546;2022-09-23T17:44:50;12.48;;;9.40;;
67140;SDS011;54058;52.010;5.546;2022-09-23T17:47:16;18.57;;;12.03;;
67140;SDS011;54058;52.010;5.546;2022-09-23T17:49:41;13.82;;;9.50;;
67140;SDS011;54058;52.010;5.546;2022-09-23T17:52:09;14.63;;;9.02;;
67140;SDS011;54058;52.010;5.546;2022-09-23T17:54:34;17.33;;;10.57;;
67140;SDS011;54058;52.010;5.546;2022-09-23T17:57:00;14.50;;;9.90;;
67140;SDS011;54058;52.010;5.546;2022-09-23T17:59:26;19.02;;;13.65;;
67140;SDS011;54058;52.010;5.546;2022-09-23T18:01:52;20.27;;;12.48;;
67140;SDS011;54058;52.010;5.546;2022-09-23T18:04:18;20.60;;;11.85;;
67140;SDS011;54058;52.010;5.546;2022-09-23T18:06:44;25.42;;;13.98;;
67140;SDS011;54058;52.010;5.546;2022-09-23T18:09:09;15.80;;;10.38;;
67140;SDS011;54058;52.010;5.546;2022-09-23T18:11:39;17.02;;;12.32;;
67140;SDS011;54058;52.010;5.546;2022-09-23T18:14:14;17.25;;;10.63;;
67140;SDS011;54058;52.010;5.546;2022-09-23T18:16:45;19.88;;;10.98;;
67140;SDS011;54058;52.010;5.546;2022-09-23T18:19:13;14.20;;;10.05;;
67140;SDS011;54058;52.010;5.546;2022-09-23T18:21:42;17.92;;;12.05;;
67140;SDS011;54058;52.010;5.546;2022-09-23T18:24:13;13.95;;;10.30;;
67140;SDS011;54058;52.010;5.546;2022-09-23T18:26:39;19.83;;;10.32;;
67140;SDS011;54058;52.010;5.546;2022-09-23T18:29:05;24.02;;;11.45;;
67140;SDS011;54058;52.010;5.546;2022-09-23T18:31:32;26.30;;;14.63;;
67140;SDS011;54058;52.010;5.546;2022-09-23T18:34:00;15.73;;;10.48;;
67140;SDS011;54058;52.010;5.546;2022-09-23T18:36:27;16.27;;;9.77;;
67140;SDS011;54058;52.010;5.546;2022-09-23T18:38:53;18.33;;;10.55;;
67140;SDS011;54058;52.010;5.546;2022-09-23T18:41:19;23.67;;;11.53;;
67140;SDS011;54058;52.010;5.546;2022-09-23T18:43:45;19.17;;;10.63;;
67140;SDS011;54058;52.010;5.546;2022-09-23T18:46:12;16.92;;;10.90;;
67140;SDS011;54058;52.010;5.546;2022-09-23T18:48:42;17.55;;;10.38;;
67140;SDS011;54058;52.010;5.546;2022-09-23T18:51:28;23.75;;;12.68;;
67140;SDS011;54058;52.010;5.546;2022-09-23T18:53:54;21.77;;;9.93;;
67140;SDS011;54058;52.010;5.546;2022-09-23T18:56:24;18.58;;;11.00;;
67140;SDS011;54058;52.010;5.546;2022-09-23T18:58:58;18.88;;;10.70;;
67140;SDS011;54058;52.010;5.546;2022-09-23T19:01:24;23.83;;;12.07;;
67140;SDS011;54058;52.010;5.546;2022-09-23T19:03:54;17.90;;;11.70;;
67140;SDS011;54058;52.010;5.546;2022-09-23T19:06:20;18.13;;;11.57;;
67140;SDS011;54058;52.010;5.546;2022-09-23T19:08:48;17.20;;;12.70;;
67140;SDS011;54058;52.010;5.546;2022-09-23T19:11:15;15.82;;;11.25;;
67140;SDS011;54058;52.010;5.546;2022-09-23T19:13:41;19.77;;;11.98;;
67140;SDS011;54058;52.010;5.546;2022-09-23T19:16:10;20.23;;;12.52;;
67140;SDS011;54058;52.010;5.546;2022-09-23T19:18:38;18.73;;;12.43;;
67140;SDS011;54058;52.010;5.546;2022-09-23T19:21:06;23.50;;;13.88;;
67140;SDS011;54058;52.010;5.546;2022-09-23T19:23:35;20.08;;;11.45;;